createdAt,value
2022-11-02T00:00:35.228Z,27.70
2022-11-02T00:03:05.603Z,26.25
2022-11-02T00:05:36.059Z,27.92
2022-11-02T00:08:12.264Z,24.98
2022-11-02T00:10:42.524Z,26.40
2022-11-02T00:13:09.722Z,20.92
2022-11-02T00:15:38.193Z,22.77
2022-11-02T00:18:15.962Z,27.55
2022-11-02T00:20:44.998Z,28.30
2022-11-02T00:23:14.423Z,26.25
2022-11-02T00:25:51.254Z,29.25
2022-11-02T00:28:20.598Z,25.90
2022-11-02T00:30:47.628Z,31.77
2022-11-02T00:33:15.914Z,32.83
2022-11-02T00:35:42.945Z,31.27
2022-11-02T00:38:10.818Z,35.33
2022-11-02T00:40:38.965Z,34.83
2022-11-02T00:43:07.938Z,33.88
2022-11-02T00:45:39.238Z,38.25
2022-11-02T00:48:06.846Z,38.17
2022-11-02T00:50:34.309Z,37.28
2022-11-02T00:53:02.178Z,38.50
2022-11-02T00:55:31.499Z,42.95
2022-11-02T00:58:00.833Z,45.42
2022-11-02T01:00:28.158Z,45.63
2022-11-02T01:02:59.762Z,44.90
2022-11-02T01:05:26.790Z,42.17
2022-11-02T01:08:07.059Z,42.97
2022-11-02T01:10:36.254Z,45.53
2022-11-02T01:13:05.403Z,45.90
2022-11-02T01:15:37.441Z,44.40
2022-11-02T01:18:19.704Z,41.75
2022-11-02T01:20:46.883Z,40.28
2022-11-02T01:23:13.808Z,44.10
2022-11-02T01:25:45.559Z,42.20
2022-11-02T01:28:12.477Z,41.58
2022-11-02T01:30:40.447Z,41.90
2022-11-02T01:33:10.324Z,39.50
2022-11-02T01:35:37.704Z,43.20
2022-11-02T01:38:08.705Z,46.63
2022-11-02T01:40:40.377Z,41.25
2022-11-02T01:43:47.062Z,44.10
2022-11-02T01:46:22.471Z,46.55
2022-11-02T01:49:05.688Z,44.20
2022-11-02T01:51:49.724Z,41.17
2022-11-02T01:54:22.988Z,46.75
2022-11-02T01:57:04.293Z,43.05
2022-11-02T01:59:56.951Z,45.15
2022-11-02T02:02:30.086Z,45.28
2022-11-02T02:05:18.018Z,48.90
2022-11-02T02:07:46.888Z,46.53
2022-11-02T02:10:15.014Z,42.90
2022-11-02T02:13:19.304Z,45.10
2022-11-02T02:16:15.628Z,43.50
2022-11-02T02:18:52.025Z,40.20
2022-11-02T02:21:40.420Z,48.30
2022-11-02T02:24:28.064Z,49.17
2022-11-02T02:27:43.144Z,44.72
2022-11-02T02:30:11.854Z,43.40
2022-11-02T02:33:12.250Z,44.53
2022-11-02T02:36:21.338Z,44.03
2022-11-02T02:39:23.679Z,44.75
2022-11-02T02:42:03.317Z,46.80
2022-11-02T02:44:41.119Z,45.80
2022-11-02T02:47:16.419Z,43.40
2022-11-02T02:49:58.419Z,54.47
2022-11-02T02:52:51.091Z,47.75
2022-11-02T02:55:26.514Z,48.55
2022-11-02T02:57:56.674Z,49.00
2022-11-02T03:00:24.681Z,52.90
2022-11-02T03:03:01.658Z,45.72
2022-11-02T03:05:33.028Z,48.92
2022-11-02T03:08:10.036Z,49.85
2022-11-02T03:11:27.227Z,47.65
2022-11-02T03:14:11.742Z,45.60
2022-11-02T03:16:49.738Z,43.50
2022-11-02T03:19:53.806Z,43.05
2022-11-02T03:22:56.679Z,44.42
2022-11-02T03:25:46.139Z,40.88
2022-11-02T03:28:24.918Z,48.33
2022-11-02T03:31:04.966Z,41.47
2022-11-02T03:33:38.204Z,41.45
2022-11-02T03:36:23.907Z,45.80
2022-11-02T03:38:59.425Z,40.05
2022-11-02T03:41:29.175Z,37.60
2022-11-02T03:44:04.231Z,40.92
2022-11-02T03:46:39.464Z,39.28
2022-11-02T03:49:11.547Z,39.50
2022-11-02T03:51:42.883Z,41.42
2022-11-02T03:54:36.695Z,35.47
2022-11-02T03:57:10.346Z,35.15
2022-11-02T04:02:10.692Z,34.53
2022-11-02T04:04:54.024Z,36.50
2022-11-02T04:07:27.709Z,37.00
2022-11-02T04:13:07.894Z,34.28
2022-11-02T04:15:35.904Z,31.60
2022-11-02T04:18:24.653Z,30.73
2022-11-02T04:20:53.323Z,33.95
2022-11-02T04:23:39.620Z,32.05
2022-11-02T04:26:07.794Z,32.75
2022-11-02T04:28:41.937Z,29.80
2022-11-02T04:31:13.369Z,33.40
2022-11-02T04:33:44.588Z,29.73
2022-11-02T04:36:19.408Z,33.33
2022-11-02T04:38:46.541Z,28.60
2022-11-02T04:41:33.088Z,29.13
2022-11-02T04:44:02.541Z,31.92
2022-11-02T04:46:38.529Z,32.35
2022-11-02T04:49:19.107Z,28.02
2022-11-02T04:51:49.756Z,29.70
2022-11-02T04:54:18.188Z,30.27
2022-11-02T04:56:45.438Z,31.58
2022-11-02T04:59:21.772Z,31.02
2022-11-02T05:01:57.225Z,30.25
2022-11-02T05:04:24.435Z,30.65
2022-11-02T05:06:51.505Z,32.92
2022-11-02T05:09:18.618Z,29.67
2022-11-02T05:11:45.799Z,30.67
2022-11-02T05:14:13.779Z,30.52
2022-11-02T05:16:40.701Z,31.88
2022-11-02T05:19:10.992Z,30.10
2022-11-02T05:21:40.276Z,31.60
2022-11-02T05:24:10.815Z,33.20
2022-11-02T05:26:38.884Z,29.52
2022-11-02T05:29:08.901Z,31.23
2022-11-02T05:31:36.844Z,31.58
2022-11-02T05:34:07.979Z,29.70
2022-11-02T05:36:37.681Z,31.05
2022-11-02T05:39:05.683Z,31.52
2022-11-02T05:41:36.869Z,31.38
2022-11-02T05:44:03.908Z,33.78
2022-11-02T05:46:33.849Z,32.00
2022-11-02T05:49:07.679Z,33.40
2022-11-02T05:51:34.607Z,33.58
2022-11-02T05:54:03.699Z,35.47
2022-11-02T05:56:30.649Z,33.45
2022-11-02T05:58:59.663Z,32.10
2022-11-02T06:01:35.829Z,31.83
2022-11-02T06:04:02.760Z,32.22
2022-11-02T06:06:29.790Z,32.92
2022-11-02T06:09:00.620Z,30.45
2022-11-02T06:11:32.285Z,32.85
2022-11-02T06:13:59.207Z,36.25
2022-11-02T06:16:38.469Z,36.97
2022-11-02T06:19:07.625Z,32.03
2022-11-02T06:21:36.528Z,36.63
2022-11-02T06:24:06.789Z,35.40
2022-11-02T06:26:33.758Z,32.80
2022-11-02T06:29:01.799Z,34.97
2022-11-02T06:31:28.684Z,32.40
2022-11-02T06:33:57.674Z,30.38
2022-11-02T06:36:28.887Z,30.85
2022-11-02T06:38:55.903Z,32.05
2022-11-02T06:41:22.824Z,31.73
2022-11-02T06:43:50.955Z,34.17
2022-11-02T06:46:43.101Z,31.38
2022-11-02T06:49:15.123Z,29.98
2022-11-02T06:51:51.905Z,32.55
2022-11-02T06:54:19.369Z,34.60
2022-11-02T06:56:46.398Z,29.10
2022-11-02T06:59:15.390Z,32.00
2022-11-02T07:01:42.661Z,26.67
2022-11-02T07:04:09.836Z,27.85
2022-11-02T07:06:36.814Z,29.20
2022-11-02T07:09:04.791Z,26.98
2022-11-02T07:11:33.469Z,30.45
2022-11-02T07:14:01.777Z,31.90
2022-11-02T07:16:47.749Z,30.02
2022-11-02T07:19:24.870Z,34.63
2022-11-02T07:22:22.869Z,35.88
2022-11-02T07:24:49.950Z,32.55
2022-11-02T07:27:17.547Z,36.78
2022-11-02T07:29:44.524Z,33.05
2022-11-02T07:32:12.662Z,30.50
2022-11-02T07:34:39.693Z,33.28
2022-11-02T07:37:29.227Z,30.65
2022-11-02T07:39:56.359Z,31.50
2022-11-02T07:42:32.278Z,28.50
2022-11-02T07:45:05.343Z,27.60
2022-11-02T07:47:48.059Z,29.90
2022-11-02T07:50:39.065Z,26.25
2022-11-02T07:53:40.251Z,25.40
2022-11-02T07:56:08.158Z,29.20
2022-11-02T07:58:41.324Z,29.58
2022-11-02T08:01:09.571Z,26.40
2022-11-02T08:03:36.779Z,28.05
2022-11-02T08:06:04.140Z,29.27
2022-11-02T08:08:42.316Z,28.02
2022-11-02T08:11:11.392Z,25.73
2022-11-02T08:13:38.859Z,26.95
2022-11-02T08:16:06.562Z,25.08
2022-11-02T08:18:34.678Z,25.02
2022-11-02T08:21:02.054Z,23.30
2022-11-02T08:23:30.528Z,21.75
2022-11-02T08:26:01.071Z,22.20
2022-11-02T08:28:36.816Z,21.20
2022-11-02T08:31:05.289Z,18.27
2022-11-02T08:33:32.389Z,18.05
2022-11-02T08:36:05.296Z,19.73
2022-11-02T08:38:32.660Z,15.83
2022-11-02T08:41:06.971Z,15.82
2022-11-02T08:43:34.020Z,10.35
2022-11-02T08:46:14.806Z,12.27
2022-11-02T08:48:42.737Z,11.95
2022-11-02T08:51:13.684Z,11.77
2022-11-02T08:53:48.579Z,14.23
2022-11-02T08:56:18.511Z,13.45
2022-11-02T08:58:56.784Z,10.77
2022-11-02T09:01:23.930Z,10.07
2022-11-02T09:03:51.166Z,9.45
2022-11-02T09:06:18.261Z,11.90
2022-11-02T09:08:47.395Z,9.98
2022-11-02T09:11:16.660Z,10.20
2022-11-02T09:13:45.627Z,11.70
2022-11-02T09:16:14.818Z,10.07
2022-11-02T09:18:41.941Z,10.63
2022-11-02T09:21:09.406Z,18.60
2022-11-02T09:23:43.659Z,11.77
2022-11-02T09:26:10.581Z,15.70
2022-11-02T09:28:38.692Z,12.93
2022-11-02T09:31:08.924Z,13.57
2022-11-02T09:33:39.664Z,10.03
2022-11-02T09:36:09.259Z,10.60
2022-11-02T09:38:43.566Z,9.95
2022-11-02T09:41:29.119Z,10.45
2022-11-02T09:44:34.434Z,11.40
2022-11-02T09:47:55.703Z,15.00
2022-11-02T09:49:51.350Z,13.05
2022-11-02T09:52:56.836Z,13.23
2022-11-02T09:55:37.329Z,10.35
2022-11-02T09:58:13.309Z,14.15
2022-11-02T10:01:00.721Z,10.23
2022-11-02T10:03:58.353Z,7.47
2022-11-02T10:06:33.239Z,11.27
2022-11-02T10:09:15.034Z,9.55
2022-11-02T10:11:54.427Z,8.80
2022-11-02T10:14:46.470Z,17.55
2022-11-02T10:17:22.873Z,8.73
2022-11-02T10:19:57.176Z,7.28
2022-11-02T10:22:32.925Z,6.63
2022-11-02T10:25:07.637Z,7.43
2022-11-02T10:27:40.528Z,6.53
2022-11-02T10:30:35.638Z,9.43
2022-11-02T10:33:13.484Z,6.60
2022-11-02T10:39:33.828Z,5.00
2022-11-02T10:42:22.148Z,5.65
2022-11-02T10:45:29.339Z,6.25
2022-11-02T10:48:04.291Z,6.82
2022-11-02T10:50:49.449Z,7.07
2022-11-02T10:53:40.740Z,5.53
2022-11-02T10:56:18.553Z,6.05
2022-11-02T10:59:20.805Z,7.93
2022-11-02T11:01:56.956Z,6.43
2022-11-02T11:04:32.259Z,7.60
2022-11-02T11:07:06.478Z,7.55
2022-11-02T11:09:48.841Z,4.50
2022-11-02T11:12:38.741Z,7.72
2022-11-02T11:21:02.579Z,6.70
2022-11-02T11:23:30.631Z,7.72
2022-11-02T11:26:26.277Z,10.27
2022-11-02T11:28:58.199Z,12.50
2022-11-02T11:31:26.355Z,8.68
2022-11-02T11:33:56.525Z,10.25
2022-11-02T11:36:36.807Z,8.63
2022-11-02T11:39:24.407Z,8.82
2022-11-02T11:41:51.443Z,8.60
2022-11-02T11:44:18.905Z,7.65
2022-11-02T11:46:52.739Z,7.20
2022-11-02T11:52:31.905Z,8.38
2022-11-02T11:55:26.155Z,7.72
2022-11-02T11:58:25.065Z,7.55
2022-11-02T12:01:16.535Z,5.90
2022-11-02T12:03:53.577Z,8.98
2022-11-02T12:06:56.675Z,8.88
2022-11-02T12:09:48.415Z,7.72
2022-11-02T12:12:46.439Z,8.30
2022-11-02T12:15:32.719Z,7.57
2022-11-02T12:18:38.430Z,6.55
2022-11-02T12:21:47.060Z,7.63
2022-11-02T12:24:40.650Z,11.73
2022-11-02T12:27:52.170Z,8.15
2022-11-02T12:31:03.883Z,7.82
2022-11-02T12:33:40.606Z,11.45
2022-11-02T12:36:20.594Z,10.43
2022-11-02T12:39:14.188Z,8.60
2022-11-02T12:42:04.996Z,7.72
2022-11-02T12:44:59.071Z,8.77
2022-11-02T12:47:44.464Z,7.03
2022-11-02T12:50:20.245Z,6.43
2022-11-02T12:53:48.242Z,7.20
2022-11-02T12:56:21.388Z,5.68
2022-11-02T12:58:56.244Z,6.78
2022-11-02T13:01:32.524Z,7.43
2022-11-02T13:04:17.367Z,7.65
2022-11-02T13:06:49.369Z,7.35
2022-11-02T13:09:31.838Z,7.18
2022-11-02T13:12:04.639Z,6.80
2022-11-02T13:14:43.095Z,6.68
2022-11-02T13:17:21.993Z,6.80
2022-11-02T13:20:03.943Z,7.45
2022-11-02T13:22:36.141Z,6.93
2022-11-02T13:25:17.744Z,8.57
2022-11-02T13:28:05.462Z,8.07
2022-11-02T13:30:34.107Z,10.55
2022-11-02T13:33:41.610Z,6.22
2022-11-02T13:36:13.013Z,7.05
2022-11-02T13:41:55.950Z,6.57
2022-11-02T13:44:42.548Z,6.50
2022-11-02T13:47:22.300Z,9.52
2022-11-02T13:49:53.463Z,6.85
2022-11-02T13:52:42.422Z,8.63
2022-11-02T13:55:19.245Z,10.80
2022-11-02T13:58:05.889Z,11.63
2022-11-02T14:00:45.842Z,9.30
2022-11-02T14:03:22.775Z,7.70
2022-11-02T14:06:14.399Z,8.23
2022-11-02T14:08:56.968Z,6.32
2022-11-02T14:11:34.697Z,6.55
2022-11-02T14:14:12.520Z,9.55
2022-11-02T14:16:58.773Z,8.27
2022-11-02T14:19:49.734Z,10.85
2022-11-02T14:22:18.770Z,12.48
2022-11-02T14:24:48.515Z,7.72
2022-11-02T14:27:20.422Z,6.53
2022-11-02T14:29:52.376Z,10.25
2022-11-02T14:32:24.267Z,7.13
2022-11-02T14:35:16.623Z,11.57
2022-11-02T14:37:53.395Z,8.43
2022-11-02T14:40:43.313Z,9.50
2022-11-02T14:43:59.247Z,10.77
2022-11-02T14:46:57.129Z,7.32
2022-11-02T14:49:30.977Z,8.18
2022-11-02T14:52:04.774Z,8.93
2022-11-02T14:54:46.771Z,11.52
2022-11-02T14:57:33.499Z,9.75
2022-11-02T15:00:04.169Z,10.90
2022-11-02T15:02:43.156Z,10.90
2022-11-02T15:05:29.928Z,13.32
2022-11-02T15:08:02.487Z,14.45
2022-11-02T15:10:39.127Z,13.82
2022-11-02T15:13:30.547Z,12.10
2022-11-02T15:15:58.045Z,11.07
2022-11-02T15:18:34.695Z,11.80
2022-11-02T15:21:11.272Z,11.57
2022-11-02T15:24:11.030Z,14.48
2022-11-02T15:26:43.490Z,10.82
2022-11-02T15:29:33.677Z,14.88
2022-11-02T15:32:06.563Z,10.85
2022-11-02T15:34:43.999Z,13.77
2022-11-02T15:37:19.230Z,14.05
2022-11-02T15:39:56.776Z,11.95
2022-11-02T15:42:46.771Z,12.45
2022-11-02T15:45:42.243Z,12.80
2022-11-02T15:48:16.779Z,12.65
2022-11-02T15:51:07.581Z,10.18
2022-11-02T15:53:42.613Z,11.27
2022-11-02T15:56:28.206Z,16.23
2022-11-02T15:59:34.098Z,13.75
2022-11-02T16:02:35.862Z,19.17
2022-11-02T16:05:04.102Z,22.25
2022-11-02T16:07:50.295Z,20.27
2022-11-02T16:10:25.471Z,22.10
2022-11-02T16:15:49.216Z,22.77
2022-11-02T16:18:28.529Z,22.90
2022-11-02T16:21:06.802Z,17.42
2022-11-02T16:23:37.501Z,16.60
2022-11-02T16:26:20.254Z,15.20
2022-11-02T16:28:56.189Z,19.15
2022-11-02T16:31:31.362Z,21.13
2022-11-02T16:34:22.855Z,22.95
2022-11-02T16:36:54.254Z,24.20
2022-11-02T16:39:32.199Z,24.92
2022-11-02T16:42:02.261Z,27.55
2022-11-02T16:44:33.726Z,21.13
2022-11-02T16:47:08.431Z,19.45
2022-11-02T16:49:51.421Z,19.95
2022-11-02T16:52:37.415Z,32.72
2022-11-02T16:55:26.160Z,44.47
2022-11-02T16:58:01.759Z,55.63
2022-11-02T17:00:29.111Z,51.97
2022-11-02T17:02:57.361Z,48.45
2022-11-02T17:05:26.899Z,39.38
2022-11-02T17:08:01.450Z,38.10
2022-11-02T17:10:29.800Z,41.00
2022-11-02T17:13:07.388Z,38.38
2022-11-02T17:15:38.166Z,35.35
2022-11-02T17:18:08.529Z,30.98
2022-11-02T17:20:38.211Z,24.50
2022-11-02T17:23:30.356Z,24.25
2022-11-02T17:26:22.435Z,25.23
2022-11-02T17:29:22.734Z,24.52
2022-11-02T17:32:01.926Z,21.60
2022-11-02T17:34:30.896Z,18.05
2022-11-02T17:37:06.965Z,21.08
2022-11-02T17:40:10.834Z,15.95
2022-11-02T17:42:57.253Z,18.20
2022-11-02T17:45:33.542Z,21.58
2022-11-02T17:48:08.411Z,24.83
2022-11-02T17:50:39.884Z,21.35
2022-11-02T17:53:13.535Z,20.30
2022-11-02T17:55:42.042Z,16.05
2022-11-02T17:58:21.534Z,16.35
2022-11-02T18:00:49.697Z,18.85
2022-11-02T18:03:21.185Z,20.95
2022-11-02T18:05:55.818Z,14.75
2022-11-02T18:08:26.044Z,16.45
2022-11-02T18:10:53.591Z,19.73
2022-11-02T18:13:27.900Z,18.13
2022-11-02T18:15:57.012Z,18.52
2022-11-02T18:18:29.746Z,16.75
2022-11-02T18:20:57.219Z,17.20
2022-11-02T18:23:24.936Z,21.00
2022-11-02T18:25:55.202Z,17.25
2022-11-02T18:28:27.007Z,20.75
2022-11-02T18:31:08.208Z,33.38
2022-11-02T18:33:36.335Z,20.63
2022-11-02T18:36:11.380Z,21.48
2022-11-02T18:38:44.718Z,23.67
2022-11-02T18:41:35.065Z,26.10
2022-11-02T18:44:15.260Z,29.17
2022-11-02T18:46:43.380Z,27.27
2022-11-02T18:49:12.614Z,22.85
2022-11-02T18:51:46.367Z,22.27
2022-11-02T18:56:45.320Z,16.50
2022-11-02T18:59:14.899Z,13.43
2022-11-02T19:01:42.951Z,14.65
2022-11-02T19:04:17.014Z,10.68
2022-11-02T19:07:03.996Z,15.90
2022-11-02T19:12:30.859Z,11.98
2022-11-02T19:14:59.833Z,18.00
2022-11-02T19:17:31.149Z,11.73
2022-11-02T19:20:00.833Z,14.45
2022-11-02T19:22:31.392Z,14.43
2022-11-02T19:24:58.957Z,11.80
2022-11-02T19:27:29.779Z,14.82
2022-11-02T19:29:57.133Z,27.58
2022-11-02T19:32:31.095Z,22.00
2022-11-02T19:34:58.795Z,17.40
2022-11-02T19:37:26.058Z,17.15
2022-11-02T19:39:54.434Z,13.00
2022-11-02T19:42:24.234Z,13.35
2022-11-02T19:44:55.737Z,16.67
2022-11-02T19:47:23.096Z,16.58
2022-11-02T19:49:52.030Z,16.50
2022-11-02T19:52:19.412Z,13.63
2022-11-02T19:54:46.930Z,14.77
2022-11-02T19:57:16.454Z,14.07
2022-11-02T19:59:45.917Z,16.20
2022-11-02T20:02:19.013Z,14.18
2022-11-02T20:04:46.911Z,16.42
2022-11-02T20:07:21.372Z,16.17
2022-11-02T20:10:11.805Z,22.88
2022-11-02T20:12:40.050Z,23.33
2022-11-02T20:15:08.458Z,23.98
2022-11-02T20:17:51.883Z,21.25
2022-11-02T20:20:24.881Z,20.42
2022-11-02T20:22:54.156Z,15.57
2022-11-02T20:25:24.767Z,18.83
2022-11-02T20:27:54.215Z,16.75
2022-11-02T20:30:24.818Z,17.15
2022-11-02T20:32:54.605Z,16.52
2022-11-02T20:35:27.076Z,16.95
2022-11-02T20:37:56.202Z,18.02
2022-11-02T20:40:24.478Z,15.63
2022-11-02T20:42:53.141Z,17.08
2022-11-02T20:45:24.870Z,17.45
2022-11-02T20:47:54.457Z,13.50
2022-11-02T20:50:26.198Z,15.23
2022-11-02T20:52:55.638Z,18.00
2022-11-02T20:55:52.426Z,18.50
2022-11-02T20:58:21.124Z,14.68
2022-11-02T21:00:49.172Z,14.38
2022-11-02T21:03:17.814Z,14.48
2022-11-02T21:05:46.544Z,12.35
2022-11-02T21:08:17.902Z,13.15
2022-11-02T21:11:03.075Z,13.95
2022-11-02T21:13:49.416Z,21.55
2022-11-02T21:16:16.849Z,13.90
2022-11-02T21:18:50.030Z,12.52
2022-11-02T21:21:20.064Z,17.60
2022-11-02T21:23:52.111Z,19.75
2022-11-02T21:26:19.328Z,13.85
2022-11-02T21:28:46.474Z,17.73
2022-11-02T21:31:26.003Z,17.70
2022-11-02T21:33:54.188Z,14.50
2022-11-02T21:36:23.696Z,22.35
2022-11-02T21:38:51.943Z,53.28
2022-11-02T21:41:21.599Z,47.63
2022-11-02T21:43:52.166Z,43.40
2022-11-02T21:46:28.973Z,26.88
2022-11-02T21:49:01.981Z,35.17
2022-11-02T21:51:29.139Z,33.50
2022-11-02T21:53:57.007Z,38.47
2022-11-02T21:56:27.279Z,23.25
2022-11-02T21:59:05.435Z,24.15
2022-11-02T22:02:01.001Z,25.48
2022-11-02T22:04:34.384Z,28.80
2022-11-02T22:07:03.334Z,22.60
2022-11-02T22:09:31.430Z,24.88
2022-11-02T22:12:25.522Z,25.10
2022-11-02T22:14:53.622Z,25.83
2022-11-02T22:17:47.917Z,27.77
2022-11-02T22:20:18.917Z,20.85
2022-11-02T22:22:47.910Z,15.95
2022-11-02T22:25:14.858Z,15.20
2022-11-02T22:27:42.887Z,16.27
2022-11-02T22:30:11.670Z,13.77
2022-11-02T22:32:49.355Z,21.38
2022-11-02T22:35:31.428Z,18.50
2022-11-02T22:38:19.788Z,15.95
2022-11-02T22:41:09.477Z,17.80
2022-11-02T22:43:57.259Z,16.92
2022-11-02T22:46:26.699Z,15.80
2022-11-02T22:48:58.034Z,16.17
2022-11-02T22:51:44.374Z,16.80
2022-11-02T22:54:15.754Z,14.82
2022-11-02T22:56:44.226Z,15.48
2022-11-02T22:59:11.943Z,17.15
2022-11-02T23:01:39.643Z,15.90
2022-11-02T23:04:07.950Z,15.93
2022-11-02T23:06:35.382Z,15.45
2022-11-02T23:09:02.827Z,14.23
2022-11-02T23:11:34.034Z,16.38
2022-11-02T23:14:03.140Z,16.30
2022-11-02T23:16:54.115Z,16.08
2022-11-02T23:19:28.526Z,18.17
2022-11-02T23:22:25.527Z,19.27
2022-11-02T23:25:14.509Z,18.00
2022-11-02T23:28:22.339Z,16.08
2022-11-02T23:31:07.981Z,15.27
2022-11-02T23:33:47.027Z,22.52
2022-11-02T23:36:16.357Z,22.05
2022-11-02T23:39:05.134Z,22.77
2022-11-02T23:41:47.269Z,22.63
2022-11-02T23:44:16.268Z,24.60
2022-11-02T23:46:49.454Z,23.13
2022-11-02T23:49:24.739Z,22.05
2022-11-02T23:52:10.307Z,22.58
2022-11-02T23:54:56.134Z,30.02
2022-11-02T23:57:25.948Z,21.98
2022-11-02T23:59:52.984Z,22.05
